Aviation Digital Data Service (ADDS)

Output produced by METARs form (0815 UTC 29 May 2015)
found at http://aviationweather.gov/adds/metars/
 
KGON 290539Z 2906/3006 VRB03KT P6SM SKC 
     FM291200 05006KT P6SM SKC 
     FM291500 VRB05KT P6SM SKC 
     FM291700 15008KT P6SM SKC 
     FM292300 VRB04KT P6SM SKC